createdAt,value
2018-10-11T00:01:25.216Z,62.00
2018-10-11T00:03:53.492Z,62.30
2018-10-11T00:06:21.765Z,62.00
2018-10-11T00:08:50.240Z,62.00
2018-10-11T00:11:19.995Z,62.00
2018-10-11T00:13:48.846Z,61.70
2018-10-11T00:16:18.037Z,61.70
2018-10-11T00:18:46.295Z,62.30
2018-10-11T00:21:14.575Z,62.50
2018-10-11T00:23:42.979Z,62.20
2018-10-11T00:26:11.277Z,62.00
2018-10-11T00:28:39.621Z,61.80
2018-10-11T00:31:08.155Z,61.50
2018-10-11T00:33:36.444Z,62.10
2018-10-11T00:36:04.729Z,61.90
2018-10-11T00:38:33.005Z,61.90
2018-10-11T00:41:01.784Z,62.00
2018-10-11T00:43:30.071Z,62.00
2018-10-11T00:45:58.361Z,61.60
2018-10-11T00:48:26.637Z,61.90
2018-10-11T00:50:54.928Z,62.30
2018-10-11T00:53:23.184Z,62.10
2018-10-11T00:55:51.685Z,62.30
2018-10-11T00:58:19.952Z,62.20
2018-10-11T01:00:48.240Z,61.80
2018-10-11T01:03:16.495Z,62.00
2018-10-11T01:05:44.819Z,62.70
2018-10-11T01:08:13.109Z,62.70
2018-10-11T01:10:41.356Z,62.30
2018-10-11T01:13:09.683Z,62.10
2018-10-11T01:15:38.053Z,61.70
2018-10-11T01:18:06.431Z,61.50
2018-10-11T01:20:34.746Z,62.10
2018-10-11T01:23:02.975Z,61.90
2018-10-11T01:25:31.251Z,61.60
2018-10-11T01:27:59.507Z,61.90
2018-10-11T01:30:27.785Z,61.90
2018-10-11T01:32:56.787Z,61.70
2018-10-11T01:35:25.549Z,61.90
2018-10-11T01:37:53.899Z,62.50
2018-10-11T01:40:22.185Z,62.40
2018-10-11T01:43:01.275Z,62.30
2018-10-11T01:45:29.548Z,61.90
2018-10-11T01:47:58.034Z,61.40
2018-10-11T01:50:26.332Z,61.90
2018-10-11T01:52:55.825Z,62.20
2018-10-11T01:55:25.245Z,62.00
2018-10-11T01:57:53.926Z,61.50
2018-10-11T02:00:22.183Z,62.00
2018-10-11T02:02:50.452Z,61.80
2018-10-11T02:05:18.732Z,61.70
2018-10-11T02:07:47.005Z,62.10
2018-10-11T02:10:15.289Z,62.70
2018-10-11T02:12:43.554Z,62.40
2018-10-11T02:15:11.845Z,62.10
2018-10-11T02:17:40.217Z,61.80
2018-10-11T02:20:08.517Z,61.20
2018-10-11T02:22:36.789Z,61.60
2018-10-11T02:25:05.061Z,62.20
2018-10-11T02:27:33.321Z,61.70
2018-10-11T02:30:01.579Z,61.60
2018-10-11T02:32:29.869Z,61.80
2018-10-11T02:34:58.379Z,61.70
2018-10-11T02:37:26.968Z,61.90
2018-10-11T02:39:56.584Z,62.60
2018-10-11T02:42:25.579Z,62.20
2018-10-11T02:44:53.880Z,62.30
2018-10-11T02:47:22.135Z,62.20
2018-10-11T02:49:50.444Z,62.10
2018-10-11T02:52:18.715Z,61.90
2018-10-11T02:54:46.987Z,62.80
2018-10-11T02:57:26.535Z,62.80
2018-10-11T02:59:54.826Z,62.50
2018-10-11T03:02:24.440Z,62.30
2018-10-11T03:04:53.155Z,61.90
2018-10-11T03:07:21.464Z,61.90
2018-10-11T03:09:49.761Z,62.10
2018-10-11T03:12:19.191Z,62.30
2018-10-11T03:14:47.473Z,61.90
2018-10-11T03:17:15.737Z,61.90
2018-10-11T03:19:43.996Z,61.90
2018-10-11T03:22:12.741Z,61.80
2018-10-11T03:24:41.536Z,61.80
2018-10-11T03:27:09.812Z,62.70
2018-10-11T03:29:38.072Z,62.30
2018-10-11T03:32:06.667Z,62.30
2018-10-11T03:34:34.936Z,62.00
2018-10-11T03:37:03.212Z,61.90
2018-10-11T03:39:31.505Z,61.80
2018-10-11T03:42:00.394Z,62.30
2018-10-11T03:44:28.996Z,62.90
2018-10-11T03:46:57.247Z,62.70
2018-10-11T03:49:26.106Z,62.30
2018-10-11T03:51:54.364Z,62.10
2018-10-11T03:54:22.628Z,61.10
2018-10-11T03:56:50.920Z,61.90
2018-10-11T03:59:19.172Z,62.30
2018-10-11T04:01:47.452Z,62.10
2018-10-11T04:04:15.728Z,61.60
2018-10-11T04:06:44.014Z,62.00
2018-10-11T04:09:12.280Z,61.80
2018-10-11T04:11:40.569Z,61.70
2018-10-11T04:14:08.844Z,62.20
2018-10-11T04:16:37.116Z,61.90
2018-10-11T04:19:05.400Z,61.90
2018-10-11T04:21:33.684Z,62.10
2018-10-11T04:24:01.948Z,61.90
2018-10-11T04:26:30.240Z,62.00
2018-10-11T04:28:58.518Z,63.10
2018-10-11T04:31:26.789Z,63.70
2018-10-11T04:33:55.044Z,62.70
2018-10-11T04:36:23.412Z,62.20
2018-10-11T04:38:51.668Z,62.00
2018-10-11T04:41:19.932Z,61.80
2018-10-11T04:43:48.227Z,61.60
2018-10-11T04:46:16.508Z,62.10
2018-10-11T04:48:44.794Z,62.00
2018-10-11T04:51:13.077Z,61.90
2018-10-11T04:53:41.388Z,62.00
2018-10-11T04:56:09.619Z,61.90
2018-10-11T04:58:37.898Z,62.00
2018-10-11T05:01:06.228Z,62.70
2018-10-11T05:03:35.308Z,62.60
2018-10-11T05:06:03.614Z,62.40
2018-10-11T05:08:31.879Z,62.20
2018-10-11T05:11:00.154Z,62.10
2018-10-11T05:13:35.795Z,62.00
2018-10-11T05:16:04.080Z,62.70
2018-10-11T05:18:32.379Z,62.60
2018-10-11T05:21:00.697Z,62.20
2018-10-11T05:23:29.011Z,62.00
2018-10-11T05:25:57.350Z,61.90
2018-10-11T05:28:26.202Z,61.70
2018-10-11T05:30:54.695Z,62.10
2018-10-11T05:33:23.000Z,62.20
2018-10-11T05:35:51.377Z,61.90
2018-10-11T05:38:19.769Z,61.90
2018-10-11T05:40:48.034Z,61.90
2018-10-11T05:43:16.300Z,61.90
2018-10-11T05:45:48.316Z,61.90
2018-10-11T05:48:16.615Z,62.40
2018-10-11T05:50:44.869Z,62.40
2018-10-11T05:53:13.162Z,62.20
2018-10-11T05:55:41.475Z,62.00
2018-10-11T05:58:09.860Z,62.00
2018-10-11T06:00:38.156Z,62.00
2018-10-11T06:03:06.438Z,62.50
2018-10-11T06:05:34.699Z,62.60
2018-10-11T06:08:03.138Z,62.30
2018-10-11T06:10:34.465Z,62.10
2018-10-11T06:13:04.376Z,62.00
2018-10-11T06:15:32.671Z,61.90
2018-10-11T06:18:00.969Z,62.00
2018-10-11T06:20:29.540Z,62.80
2018-10-11T06:22:57.883Z,62.60
2018-10-11T06:25:26.799Z,62.60
2018-10-11T06:27:55.072Z,61.90
2018-10-11T06:30:23.763Z,61.70
2018-10-11T06:32:51.999Z,61.90
2018-10-11T06:35:20.965Z,62.40
2018-10-11T06:37:49.244Z,62.20
2018-10-11T06:40:17.549Z,62.10
2018-10-11T06:42:46.071Z,61.90
2018-10-11T06:45:15.664Z,62.60
2018-10-11T06:47:46.479Z,61.90
2018-10-11T06:50:14.863Z,62.60
2018-10-11T06:52:43.104Z,62.50
2018-10-11T06:55:11.416Z,62.30
2018-10-11T06:57:39.700Z,62.20
2018-10-11T07:00:08.010Z,61.90
2018-10-11T07:02:36.288Z,61.90
2018-10-11T07:05:04.588Z,62.20
2018-10-11T07:07:32.886Z,62.20
2018-10-11T07:10:01.153Z,62.00
2018-10-11T07:12:29.831Z,62.00
2018-10-11T07:14:58.134Z,61.90
2018-10-11T07:17:26.372Z,61.80
2018-10-11T07:19:54.657Z,62.20
2018-10-11T07:22:22.956Z,62.50
2018-10-11T07:24:51.797Z,62.30
2018-10-11T07:27:20.077Z,62.20
2018-10-11T07:29:48.376Z,61.90
2018-10-11T07:32:16.692Z,62.10
2018-10-11T07:34:45.030Z,62.10
2018-10-11T07:37:13.236Z,62.40
2018-10-11T07:39:42.400Z,63.00
2018-10-11T07:42:11.309Z,62.10
2018-10-11T07:44:39.623Z,61.90
2018-10-11T07:47:07.957Z,61.80
2018-10-11T07:49:36.191Z,61.80
2018-10-11T07:52:04.455Z,62.40
2018-10-11T07:54:33.877Z,62.60
2018-10-11T07:57:02.629Z,62.40
2018-10-11T07:59:30.943Z,62.20
2018-10-11T08:01:59.199Z,62.00
2018-10-11T08:04:27.523Z,61.90
2018-10-11T08:06:55.793Z,62.00
2018-10-11T08:09:24.100Z,62.30
2018-10-11T08:11:52.464Z,61.90
2018-10-11T08:14:20.630Z,62.00
2018-10-11T08:16:49.111Z,62.10
2018-10-11T08:19:17.532Z,62.00
2018-10-11T08:21:45.582Z,62.00
2018-10-11T08:24:13.800Z,62.50
2018-10-11T08:26:42.063Z,62.40
2018-10-11T08:29:10.984Z,62.30
2018-10-11T08:31:39.321Z,62.40
2018-10-11T08:34:07.751Z,62.40
2018-10-11T08:36:36.040Z,62.30
2018-10-11T08:39:06.959Z,62.40
2018-10-11T08:41:35.230Z,63.00
2018-10-11T08:44:04.359Z,62.80
2018-10-11T08:46:32.565Z,62.60
2018-10-11T08:49:00.851Z,62.40
2018-10-11T08:51:29.163Z,62.00
2018-10-11T08:54:01.674Z,62.30
2018-10-11T08:56:29.965Z,62.70
2018-10-11T08:58:58.251Z,62.30
2018-10-11T09:01:26.524Z,62.20
2018-10-11T09:03:54.958Z,62.40
2018-10-11T09:06:23.076Z,62.40
2018-10-11T09:08:51.677Z,62.40
2018-10-11T09:11:20.043Z,62.90
2018-10-11T09:13:48.280Z,62.90
2018-10-11T09:16:16.808Z,62.70
2018-10-11T09:18:45.092Z,62.60
2018-10-11T09:21:13.365Z,62.10
2018-10-11T09:23:41.664Z,62.10
2018-10-11T09:26:09.954Z,62.10
2018-10-11T09:28:38.228Z,62.70
2018-10-11T09:31:06.742Z,62.20
2018-10-11T09:33:35.018Z,62.40
2018-10-11T09:36:03.336Z,62.50
2018-10-11T09:38:31.645Z,62.50
2018-10-11T09:41:00.451Z,62.70
2018-10-11T09:43:28.730Z,63.00
2018-10-11T09:45:56.988Z,63.10
2018-10-11T09:48:25.263Z,62.90
2018-10-11T09:50:53.532Z,62.50
2018-10-11T09:53:21.803Z,62.40
2018-10-11T09:55:50.128Z,62.60
2018-10-11T09:58:18.413Z,62.60
2018-10-11T10:00:52.044Z,63.00
2018-10-11T10:03:20.325Z,62.20
2018-10-11T10:05:48.587Z,62.50
2018-10-11T10:08:16.877Z,62.60
2018-10-11T10:10:45.185Z,62.60
2018-10-11T10:13:13.481Z,62.80
2018-10-11T10:15:41.929Z,63.30
2018-10-11T10:18:10.078Z,63.20
2018-10-11T10:20:38.372Z,63.00
2018-10-11T10:23:06.632Z,62.70
2018-10-11T10:25:35.128Z,62.30
2018-10-11T10:28:03.228Z,62.00
2018-10-11T10:30:36.824Z,62.80
2018-10-11T10:33:05.189Z,62.70
2018-10-11T10:35:33.541Z,62.30
2018-10-11T10:38:01.970Z,62.60
2018-10-11T10:40:30.347Z,62.50
2018-10-11T10:42:58.680Z,62.50
2018-10-11T10:45:26.988Z,62.80
2018-10-11T10:47:55.263Z,62.90
2018-10-11T10:50:23.575Z,62.70
2018-10-11T10:52:51.913Z,62.80
2018-10-11T10:55:20.228Z,62.80
2018-10-11T10:57:48.520Z,62.80
2018-10-11T11:00:16.815Z,62.90
2018-10-11T11:02:45.144Z,63.40
2018-10-11T11:05:13.416Z,63.20
2018-10-11T11:07:41.769Z,63.00
2018-10-11T11:10:10.052Z,62.50
2018-10-11T11:12:38.335Z,62.30
2018-10-11T11:15:06.658Z,62.40
2018-10-11T11:17:34.946Z,63.00
2018-10-11T11:20:03.220Z,62.60
2018-10-11T11:22:31.502Z,61.70
2018-10-11T11:24:59.802Z,62.50
2018-10-11T11:27:28.367Z,62.50
2018-10-11T11:29:56.671Z,62.50
2018-10-11T11:32:24.976Z,62.80
2018-10-11T11:34:53.340Z,63.30
2018-10-11T11:37:21.649Z,63.10
2018-10-11T11:39:50.024Z,63.00
2018-10-11T11:42:18.284Z,62.70
2018-10-11T11:44:46.572Z,62.20
2018-10-11T11:47:14.892Z,62.50
2018-10-11T11:49:43.164Z,62.90
2018-10-11T11:52:11.497Z,62.50
2018-10-11T11:54:39.720Z,62.50
2018-10-11T11:57:08.008Z,62.50
2018-10-11T11:59:36.333Z,62.60
2018-10-11T12:02:04.677Z,62.60
2018-10-11T12:04:32.912Z,63.10
2018-10-11T12:07:01.249Z,62.80
2018-10-11T12:09:29.885Z,62.80
2018-10-11T12:11:58.149Z,62.80
2018-10-11T12:14:26.464Z,62.80
2018-10-11T12:16:54.762Z,62.80
2018-10-11T12:19:23.072Z,63.70
2018-10-11T12:21:51.345Z,63.50
2018-10-11T12:24:19.618Z,63.40
2018-10-11T12:26:47.925Z,62.90
2018-10-11T12:29:16.208Z,62.60
2018-10-11T12:31:44.521Z,62.50
2018-10-11T12:34:12.808Z,62.60
2018-10-11T12:36:41.070Z,62.90
2018-10-11T12:39:09.902Z,62.70
2018-10-11T12:41:38.173Z,62.80
2018-10-11T12:44:06.666Z,62.80
2018-10-11T12:46:37.375Z,62.90
2018-10-11T12:49:03.234Z,62.90
2018-10-11T12:51:31.579Z,63.20
2018-10-11T12:53:59.873Z,63.40
2018-10-11T12:56:28.189Z,63.20
2018-10-11T12:58:56.466Z,62.90
2018-10-11T13:01:24.757Z,62.70
2018-10-11T13:03:53.029Z,62.70
2018-10-11T13:06:21.338Z,62.80
2018-10-11T13:08:49.619Z,62.60
2018-10-11T13:11:17.917Z,62.70
2018-10-11T13:13:49.043Z,62.70
2018-10-11T13:16:14.484Z,62.70
2018-10-11T13:18:42.753Z,62.80
2018-10-11T13:21:11.055Z,62.80
2018-10-11T13:23:40.430Z,63.00
2018-10-11T13:26:08.708Z,63.00
2018-10-11T13:28:36.993Z,63.00
2018-10-11T13:31:05.356Z,62.90
2018-10-11T13:33:33.616Z,62.80
2018-10-11T13:36:01.913Z,62.80
2018-10-11T13:38:30.338Z,63.10
2018-10-11T13:41:02.269Z,63.30
2018-10-11T13:43:26.921Z,63.30
2018-10-11T13:45:58.088Z,63.00
2018-10-11T13:48:23.492Z,62.70
2018-10-11T13:50:52.084Z,62.70
2018-10-11T13:53:23.688Z,62.70
2018-10-11T13:55:52.436Z,62.80
2018-10-11T13:58:16.996Z,62.60
2018-10-11T14:00:45.296Z,62.70
2018-10-11T14:03:13.603Z,62.70
2018-10-11T14:05:41.903Z,62.50
2018-10-11T14:08:10.281Z,62.60
2018-10-11T14:10:38.648Z,62.70
2018-10-11T14:13:11.067Z,63.00
2018-10-11T14:15:35.161Z,62.90
2018-10-11T14:18:07.630Z,63.50
2018-10-11T14:20:31.877Z,62.50
2018-10-11T14:23:00.221Z,62.60
2018-10-11T14:25:28.527Z,62.60
2018-10-11T14:27:56.958Z,63.50
2018-10-11T14:30:25.248Z,62.60
2018-10-11T14:32:53.570Z,62.70
2018-10-11T14:35:22.845Z,62.60
2018-10-11T14:37:51.124Z,62.60
2018-10-11T14:40:19.674Z,62.70
2018-10-11T14:42:48.132Z,62.90
2018-10-11T14:45:16.692Z,62.90
2018-10-11T14:47:45.076Z,62.70
2018-10-11T14:50:13.487Z,62.50
2018-10-11T14:52:42.956Z,62.40
2018-10-11T14:55:11.314Z,63.20
2018-10-11T14:57:39.613Z,62.80
2018-10-11T15:00:07.912Z,62.70
2018-10-11T15:02:36.269Z,62.70
2018-10-11T15:05:04.658Z,62.50
2018-10-11T15:07:33.096Z,62.50
2018-10-11T15:10:01.409Z,62.50
2018-10-11T15:12:29.688Z,62.70
2018-10-11T15:14:58.008Z,62.90
2018-10-11T15:17:26.300Z,62.80
2018-10-11T15:19:54.606Z,62.70
2018-10-11T15:22:22.915Z,62.60
2018-10-11T15:24:51.218Z,62.60
2018-10-11T15:27:19.503Z,62.80
2018-10-11T15:29:47.882Z,63.00
2018-10-11T15:32:16.149Z,63.10
2018-10-11T15:34:44.828Z,63.00
2018-10-11T15:37:13.171Z,62.70
2018-10-11T15:39:41.466Z,62.40
2018-10-11T15:42:09.797Z,62.50
2018-10-11T15:44:39.126Z,62.90
2018-10-11T15:47:07.439Z,62.60
2018-10-11T15:49:35.817Z,62.70
2018-10-11T15:52:04.238Z,62.50
2018-10-11T15:54:32.516Z,62.40
2018-10-11T15:57:00.797Z,62.40
2018-10-11T15:59:29.094Z,62.80
2018-10-11T16:01:57.390Z,62.90
2018-10-11T16:04:25.672Z,62.90
2018-10-11T16:06:53.966Z,62.70
2018-10-11T16:09:22.363Z,62.60
2018-10-11T16:11:50.613Z,62.60
2018-10-11T16:14:18.986Z,63.00
2018-10-11T16:16:48.330Z,63.30
2018-10-11T16:19:16.608Z,63.20
2018-10-11T16:21:44.910Z,62.90
2018-10-11T16:24:13.202Z,62.80
2018-10-11T16:26:41.784Z,62.60
2018-10-11T16:29:11.158Z,62.70
2018-10-11T16:31:39.453Z,62.80
2018-10-11T16:34:08.131Z,62.70
2018-10-11T16:36:36.409Z,62.70
2018-10-11T16:39:06.121Z,62.70
2018-10-11T16:41:34.412Z,62.50
2018-10-11T16:44:03.132Z,62.60
2018-10-11T16:46:31.732Z,62.90
2018-10-11T16:49:00.329Z,62.80
2018-10-11T16:51:28.776Z,62.60
2018-10-11T16:53:57.588Z,62.40
2018-10-11T16:56:26.608Z,62.40
2018-10-11T16:58:57.399Z,62.40
2018-10-11T17:01:25.691Z,62.60
2018-10-11T17:03:54.049Z,62.60
2018-10-11T17:06:22.414Z,62.40
2018-10-11T17:08:50.743Z,62.10
2018-10-11T17:11:19.056Z,62.00
2018-10-11T17:13:47.967Z,61.80
2018-10-11T17:16:16.245Z,61.80
2018-10-11T17:18:45.893Z,62.00
2018-10-11T17:21:14.179Z,61.90
2018-10-11T17:23:42.538Z,61.90
2018-10-11T17:26:11.502Z,61.90
2018-10-11T17:28:39.803Z,61.90
2018-10-11T17:31:08.191Z,61.90
2018-10-11T17:33:36.576Z,62.40
2018-10-11T17:36:04.932Z,62.20
2018-10-11T17:38:33.257Z,63.00
2018-10-11T17:41:01.557Z,62.20
2018-10-11T17:43:29.901Z,62.10
2018-10-11T17:45:58.234Z,62.10
2018-10-11T17:48:26.531Z,62.30
2018-10-11T17:50:54.845Z,62.60
2018-10-11T17:53:23.336Z,62.40
2018-10-11T17:55:51.702Z,62.10
2018-10-11T17:58:20.064Z,62.00
2018-10-11T18:00:48.391Z,62.30
2018-10-11T18:03:17.244Z,62.20
2018-10-11T18:05:45.638Z,62.20
2018-10-11T18:08:14.541Z,62.00
2018-10-11T18:10:42.933Z,62.00
2018-10-11T18:13:11.227Z,61.90
2018-10-11T18:15:39.581Z,61.90
2018-10-11T18:18:08.074Z,62.10
2018-10-11T18:20:36.409Z,62.30
2018-10-11T18:23:05.232Z,62.10
2018-10-11T18:25:33.622Z,62.10
2018-10-11T18:28:02.010Z,62.00
2018-10-11T18:30:30.401Z,62.00
2018-10-11T18:32:58.754Z,62.00
2018-10-11T18:35:27.189Z,62.50
2018-10-11T18:37:55.491Z,62.60
2018-10-11T18:40:25.403Z,62.40
2018-10-11T18:42:53.785Z,62.10
2018-10-11T19:00:36.222Z,63.40
2018-10-11T19:03:22.554Z,63.10
2018-10-11T19:05:52.997Z,62.40
2018-10-11T19:08:21.648Z,62.20
2018-10-11T19:10:50.062Z,62.70
2018-10-11T19:13:19.235Z,64.30
2018-10-11T19:15:47.826Z,63.80
2018-10-11T19:18:16.279Z,63.40
2018-10-11T19:20:44.753Z,62.60
2018-10-11T19:23:13.276Z,62.30
2018-10-11T19:25:41.701Z,62.10
2018-10-11T19:28:10.859Z,62.00
2018-10-11T19:30:39.241Z,61.50
2018-10-11T19:33:07.630Z,61.50
2018-10-11T19:35:36.338Z,61.40
2018-10-11T19:38:04.749Z,61.40
2018-10-11T19:40:33.200Z,61.40
2018-10-11T19:43:01.857Z,61.60
2018-10-11T19:45:30.318Z,61.70
2018-10-11T19:47:58.782Z,61.90
2018-10-11T19:50:27.237Z,61.90
2018-10-11T19:52:55.743Z,62.20
2018-10-11T19:55:24.161Z,61.90
2018-10-11T19:57:52.934Z,61.80
2018-10-11T20:00:21.390Z,62.20
2018-10-11T20:02:49.806Z,62.20
2018-10-11T20:05:18.502Z,62.30
2018-10-11T20:07:46.950Z,62.20
2018-10-11T20:10:15.618Z,62.00
2018-10-11T20:12:46.007Z,62.00
2018-10-11T20:15:17.795Z,62.30
2018-10-11T20:17:46.997Z,62.50
2018-10-11T20:20:16.813Z,62.50
2018-10-11T20:22:47.567Z,62.30
2018-10-11T20:25:19.681Z,62.20
2018-10-11T20:27:50.563Z,61.90
2018-10-11T20:30:20.866Z,61.70
2018-10-11T20:32:51.234Z,61.80
2018-10-11T20:35:21.621Z,61.80
2018-10-11T20:37:51.032Z,61.80
2018-10-11T20:40:21.406Z,61.70
2018-10-11T20:42:51.384Z,62.20
2018-10-11T20:45:21.716Z,62.10
2018-10-11T20:47:50.110Z,62.70
2018-10-11T20:50:18.488Z,62.00
2018-10-11T20:52:51.839Z,62.10
2018-10-11T20:55:26.975Z,62.00
2018-10-11T20:57:58.806Z,62.30
2018-10-11T21:00:31.406Z,62.50
2018-10-11T21:03:00.838Z,62.40
2018-10-11T21:05:29.535Z,62.40
2018-10-11T21:07:58.078Z,62.00
2018-10-11T21:10:27.475Z,62.10
2018-10-11T21:12:58.048Z,62.10
2018-10-11T21:15:27.425Z,62.20
2018-10-11T21:17:56.571Z,62.00
2018-10-11T21:20:26.022Z,62.20
2018-10-11T21:22:56.395Z,62.10
2018-10-11T21:25:26.075Z,61.80
2018-10-11T21:27:54.718Z,62.20
2018-10-11T21:30:23.966Z,63.00
2018-10-11T21:32:52.303Z,62.30
2018-10-11T21:35:20.611Z,62.30
2018-10-11T21:37:48.904Z,62.00
2018-10-11T21:40:17.265Z,62.00
2018-10-11T21:42:45.572Z,62.20
2018-10-11T21:45:14.460Z,62.60
2018-10-11T21:47:42.786Z,62.60
2018-10-11T21:50:11.098Z,62.40
2018-10-11T21:52:39.445Z,62.30
2018-10-11T21:55:07.705Z,62.10
2018-10-11T21:57:36.017Z,62.10
2018-10-11T22:00:04.966Z,62.90
2018-10-11T22:02:33.254Z,62.20
2018-10-11T22:05:01.550Z,62.10
2018-10-11T22:07:29.847Z,62.00
2018-10-11T22:09:58.145Z,62.00
2018-10-11T22:12:26.462Z,61.80
2018-10-11T22:14:55.139Z,62.40
2018-10-11T22:17:23.340Z,62.30
2018-10-11T22:19:51.614Z,62.30
2018-10-11T22:22:19.934Z,62.20
2018-10-11T22:24:48.223Z,62.00
2018-10-11T22:27:16.496Z,62.00
2018-10-11T22:29:44.824Z,62.50
2018-10-11T22:32:13.116Z,62.40
2018-10-11T22:34:41.816Z,62.40
2018-10-11T22:37:10.166Z,62.30
2018-10-11T22:39:38.414Z,62.40
2018-10-11T22:42:06.778Z,62.10
2018-10-11T22:44:35.081Z,62.30
2018-10-11T22:47:03.481Z,62.20
2018-10-11T22:49:31.769Z,62.10
2018-10-11T22:52:00.045Z,62.20
2018-10-11T22:54:28.332Z,62.00
2018-10-11T22:56:56.628Z,62.00
2018-10-11T22:59:24.926Z,62.20
2018-10-11T23:01:53.226Z,62.60
2018-10-11T23:04:21.519Z,62.40
2018-10-11T23:06:49.793Z,62.40
2018-10-11T23:09:18.104Z,62.20
2018-10-11T23:11:46.381Z,62.10
2018-10-11T23:14:14.671Z,62.20
2018-10-11T23:16:42.931Z,62.30
2018-10-11T23:19:11.713Z,62.10
2018-10-11T23:21:39.977Z,62.10
2018-10-11T23:24:08.253Z,62.20
2018-10-11T23:26:36.541Z,62.00
2018-10-11T23:29:04.835Z,62.30
2018-10-11T23:31:33.128Z,62.60
2018-10-11T23:34:01.411Z,62.40
2018-10-11T23:36:29.700Z,62.50
2018-10-11T23:38:57.972Z,62.30
2018-10-11T23:41:26.246Z,62.10
2018-10-11T23:43:54.536Z,62.10
2018-10-11T23:46:22.991Z,62.80
2018-10-11T23:48:51.288Z,62.80
2018-10-11T23:51:19.560Z,62.50
2018-10-11T23:53:47.856Z,62.40
2018-10-11T23:56:16.136Z,62.20
2018-10-11T23:58:44.419Z,62.00
